createdAt,value
2023-04-04T00:00:19.565Z,7.50
2023-04-04T00:02:46.574Z,5.27
2023-04-04T00:05:13.608Z,10.00
2023-04-04T00:07:40.118Z,4.13
2023-04-04T00:10:07.298Z,6.87
2023-04-04T00:12:34.039Z,9.63
2023-04-04T00:15:01.520Z,5.90
2023-04-04T00:17:28.133Z,5.80
2023-04-04T00:19:54.663Z,5.33
2023-04-04T00:22:21.274Z,4.43
2023-04-04T00:24:47.786Z,5.13
2023-04-04T00:27:14.568Z,8.07
2023-04-04T00:29:41.233Z,5.47
2023-04-04T00:32:07.839Z,6.13
2023-04-04T00:34:36.564Z,6.83
2023-04-04T00:37:03.362Z,7.33
2023-04-04T00:39:30.029Z,7.83
2023-04-04T00:41:57.418Z,7.63
2023-04-04T00:44:24.108Z,7.00
2023-04-04T00:46:52.642Z,6.67
2023-04-04T00:49:19.191Z,5.33
2023-04-04T00:51:46.453Z,3.87
2023-04-04T00:54:13.861Z,4.87
2023-04-04T00:56:40.705Z,7.87
2023-04-04T00:59:08.014Z,8.03
2023-04-04T01:01:36.444Z,7.73
2023-04-04T01:04:03.671Z,7.80
2023-04-04T01:06:30.911Z,8.47
2023-04-04T01:08:57.677Z,3.77
2023-04-04T01:11:26.052Z,5.70
2023-04-04T01:13:52.918Z,7.53
2023-04-04T01:16:19.593Z,7.17
2023-04-04T01:18:48.659Z,5.93
2023-04-04T01:21:17.425Z,8.60
2023-04-04T01:24:04.015Z,5.37
2023-04-04T01:26:31.387Z,4.50
2023-04-04T01:28:59.758Z,5.83
2023-04-04T01:31:29.545Z,6.10
2023-04-04T01:34:12.229Z,9.50
2023-04-04T01:36:57.924Z,6.93
2023-04-04T01:39:31.725Z,8.90
2023-04-04T01:41:59.445Z,9.23
2023-04-04T01:44:26.694Z,3.43
2023-04-04T01:46:56.699Z,6.30
2023-04-04T01:49:24.242Z,6.80
2023-04-04T01:51:52.772Z,5.57
2023-04-04T01:54:19.439Z,6.77
2023-04-04T01:56:46.637Z,7.20
2023-04-04T01:59:13.391Z,5.17
2023-04-04T02:01:40.055Z,4.87
2023-04-04T02:04:07.472Z,10.40
2023-04-04T02:06:34.116Z,5.63
2023-04-04T02:09:01.132Z,5.13
2023-04-04T02:11:27.766Z,6.90
2023-04-04T02:13:54.403Z,7.87
2023-04-04T02:16:21.532Z,5.60
2023-04-04T02:18:48.320Z,6.00
2023-04-04T02:21:14.841Z,8.07
2023-04-04T02:23:41.862Z,7.37
2023-04-04T02:26:08.496Z,3.80
2023-04-04T02:28:35.186Z,6.80
2023-04-04T02:31:05.146Z,4.80
2023-04-04T02:33:32.065Z,6.83
2023-04-04T02:36:01.719Z,7.17
2023-04-04T02:38:28.813Z,6.40
2023-04-04T02:40:55.589Z,4.20
2023-04-04T02:43:22.205Z,3.73
2023-04-04T02:45:49.522Z,8.13
2023-04-04T02:48:16.499Z,5.40
2023-04-04T02:50:43.467Z,6.30
2023-04-04T02:53:10.430Z,4.37
2023-04-04T02:55:36.965Z,5.83
2023-04-04T02:58:03.565Z,5.97
2023-04-04T03:00:30.277Z,8.07
2023-04-04T03:02:57.893Z,8.00
2023-04-04T03:05:28.535Z,4.57
2023-04-04T03:07:58.537Z,4.43
2023-04-04T03:10:26.460Z,5.07
2023-04-04T03:12:54.410Z,4.97
2023-04-04T03:15:21.631Z,4.40
2023-04-04T03:17:48.865Z,4.87
2023-04-04T03:20:16.418Z,5.70
2023-04-04T03:22:43.000Z,8.93
2023-04-04T03:25:10.138Z,4.70
2023-04-04T03:27:37.008Z,6.30
2023-04-04T03:30:04.104Z,4.07
2023-04-04T03:32:30.730Z,5.90
2023-04-04T03:34:57.335Z,7.83
2023-04-04T03:37:24.384Z,4.67
2023-04-04T03:39:51.146Z,6.03
2023-04-04T03:42:17.740Z,7.17
2023-04-04T03:44:44.302Z,5.90
2023-04-04T03:47:10.874Z,6.50
2023-04-04T03:49:37.454Z,7.33
2023-04-04T03:52:04.345Z,8.07
2023-04-04T03:54:30.940Z,11.43
2023-04-04T03:56:57.984Z,6.50
2023-04-04T03:59:24.991Z,4.10
2023-04-04T04:01:52.339Z,7.30
2023-04-04T04:04:18.926Z,7.13
2023-04-04T04:06:45.500Z,4.40
2023-04-04T04:09:12.810Z,5.87
2023-04-04T04:11:39.375Z,5.57
2023-04-04T04:14:06.176Z,9.13
2023-04-04T04:16:36.341Z,5.83
2023-04-04T04:19:03.616Z,6.70
2023-04-04T04:21:30.146Z,5.33
2023-04-04T04:23:56.710Z,4.27
2023-04-04T04:26:23.605Z,8.73
2023-04-04T04:28:50.218Z,9.30
2023-04-04T04:31:16.849Z,6.97
2023-04-04T04:33:43.438Z,5.50
2023-04-04T04:36:10.056Z,25.97
2023-04-04T04:38:36.909Z,12.27
2023-04-04T04:41:03.686Z,5.27
2023-04-04T04:43:30.626Z,10.30
2023-04-04T04:45:57.370Z,5.87
2023-04-04T04:48:23.968Z,10.57
2023-04-04T04:50:50.670Z,8.10
2023-04-04T04:53:17.230Z,4.67
2023-04-04T04:55:44.006Z,9.93
2023-04-04T04:58:11.339Z,7.10
2023-04-04T05:00:39.104Z,4.57
2023-04-04T05:03:09.059Z,5.50
2023-04-04T05:05:36.332Z,6.07
2023-04-04T05:08:03.598Z,4.60
2023-04-04T05:10:31.522Z,6.87
2023-04-04T05:12:58.386Z,6.10
2023-04-04T05:15:29.437Z,7.30
2023-04-04T05:17:56.120Z,7.63
2023-04-04T05:20:23.417Z,5.87
2023-04-04T05:22:51.736Z,11.60
2023-04-04T05:25:18.818Z,7.07
2023-04-04T05:27:49.016Z,7.23
2023-04-04T05:30:17.181Z,8.47
2023-04-04T05:32:46.911Z,10.33
2023-04-04T05:35:13.648Z,8.37
2023-04-04T05:37:40.987Z,8.20
2023-04-04T05:40:08.576Z,9.67
2023-04-04T05:42:35.356Z,7.67
2023-04-04T05:45:02.154Z,9.00
2023-04-04T05:47:28.832Z,9.67
2023-04-04T05:49:55.454Z,11.60
2023-04-04T05:52:22.061Z,8.17
2023-04-04T05:54:48.920Z,8.60
2023-04-04T05:57:15.637Z,9.43
2023-04-04T05:59:42.348Z,8.80
2023-04-04T06:02:09.288Z,5.63
2023-04-04T06:04:35.971Z,6.80
2023-04-04T06:07:02.715Z,10.47
2023-04-04T06:09:29.757Z,11.40
2023-04-04T06:11:56.585Z,6.57
2023-04-04T06:14:23.181Z,7.67
2023-04-04T06:16:49.845Z,4.43
2023-04-04T06:19:17.053Z,6.20
2023-04-04T06:21:43.616Z,10.30
2023-04-04T06:24:10.182Z,8.93
2023-04-04T06:26:36.914Z,9.17
2023-04-04T06:29:03.823Z,9.60
2023-04-04T06:31:31.371Z,7.20
2023-04-04T06:33:58.629Z,7.67
2023-04-04T06:36:25.706Z,11.60
2023-04-04T06:38:52.484Z,8.63
2023-04-04T06:41:19.059Z,10.97
2023-04-04T06:43:48.839Z,12.47
2023-04-04T06:46:15.781Z,9.63
2023-04-04T06:48:42.673Z,9.50
2023-04-04T06:51:10.024Z,5.07
2023-04-04T06:53:37.093Z,5.73
2023-04-04T06:56:05.012Z,4.63
2023-04-04T06:58:34.845Z,4.90
2023-04-04T07:01:02.550Z,14.00
2023-04-04T07:03:29.254Z,8.70
2023-04-04T07:05:55.909Z,6.47
2023-04-04T07:08:22.519Z,8.73
2023-04-04T07:10:49.306Z,7.10
2023-04-04T07:13:15.852Z,10.87
2023-04-04T07:15:48.964Z,6.30
2023-04-04T07:18:16.547Z,5.67
2023-04-04T07:20:43.949Z,8.20
2023-04-04T07:23:13.560Z,8.83
2023-04-04T07:25:40.109Z,6.90
2023-04-04T07:28:12.835Z,17.57
2023-04-04T07:30:40.391Z,29.17
2023-04-04T07:33:07.267Z,13.13
2023-04-04T07:35:35.067Z,18.33
2023-04-04T07:38:01.690Z,6.27
2023-04-04T07:40:28.715Z,4.77
2023-04-04T07:42:55.453Z,4.03
2023-04-04T07:45:22.805Z,5.60
2023-04-04T07:47:49.652Z,5.40
2023-04-04T07:50:17.054Z,5.20
2023-04-04T07:52:49.931Z,8.70
2023-04-04T07:55:16.964Z,6.17
2023-04-04T07:57:43.902Z,8.27
2023-04-04T08:00:11.065Z,4.20
2023-04-04T08:02:38.342Z,4.57
2023-04-04T08:05:05.503Z,5.93
2023-04-04T08:07:32.127Z,4.20
2023-04-04T08:09:58.706Z,5.97
2023-04-04T08:12:25.307Z,5.63
2023-04-04T08:14:52.366Z,5.27
2023-04-04T08:17:19.163Z,6.87
2023-04-04T08:19:45.933Z,7.70
2023-04-04T08:22:12.611Z,8.97
2023-04-04T08:24:39.141Z,25.10
2023-04-04T08:27:06.365Z,8.37
2023-04-04T08:29:34.500Z,8.00
2023-04-04T08:32:01.346Z,4.43
2023-04-04T08:34:28.878Z,4.73
2023-04-04T08:36:56.338Z,6.80
2023-04-04T08:39:23.041Z,5.77
2023-04-04T08:41:59.037Z,3.30
2023-04-04T08:44:28.140Z,3.47
2023-04-04T08:46:56.583Z,5.17
2023-04-04T08:49:24.608Z,8.70
2023-04-04T08:51:52.564Z,8.50
2023-04-04T08:54:21.108Z,8.07
2023-04-04T08:56:48.455Z,10.97
2023-04-04T08:59:19.141Z,5.33
2023-04-04T09:01:45.840Z,4.07
2023-04-04T09:04:12.546Z,8.03
2023-04-04T09:06:39.313Z,5.73
2023-04-04T09:09:06.839Z,2.70
2023-04-04T09:11:34.013Z,7.03
2023-04-04T09:14:04.739Z,6.33
2023-04-04T09:16:31.618Z,6.67
2023-04-04T09:18:58.221Z,5.90
2023-04-04T09:21:24.790Z,2.70
2023-04-04T09:24:02.164Z,2.67
2023-04-04T09:26:28.925Z,2.80
2023-04-04T09:28:55.797Z,4.13
2023-04-04T09:31:24.784Z,3.53
2023-04-04T09:33:51.665Z,4.90
2023-04-04T09:36:18.841Z,3.33
2023-04-04T09:38:48.800Z,3.17
2023-04-04T09:41:16.653Z,3.80
2023-04-04T09:43:46.057Z,4.00
2023-04-04T09:46:13.072Z,6.80
2023-04-04T09:48:39.727Z,2.50
2023-04-04T09:51:07.468Z,5.10
2023-04-04T09:53:36.224Z,5.40
2023-04-04T09:56:03.450Z,10.47
2023-04-04T09:58:32.189Z,8.67
2023-04-04T10:01:01.348Z,3.87
2023-04-04T10:03:29.253Z,4.60
2023-04-04T10:06:00.161Z,5.90
2023-04-04T10:08:28.637Z,6.00
2023-04-04T10:11:11.344Z,4.80
2023-04-04T10:13:44.785Z,2.90
2023-04-04T10:16:12.208Z,2.73
2023-04-04T10:18:39.455Z,3.87
2023-04-04T10:23:39.086Z,3.47
2023-04-04T10:26:06.227Z,2.27
2023-04-04T10:28:34.602Z,5.93
2023-04-04T10:31:13.278Z,5.03
2023-04-04T10:33:58.736Z,6.20
2023-04-04T10:36:30.537Z,3.23
2023-04-04T10:39:14.698Z,10.20
2023-04-04T10:41:42.439Z,1.60
2023-04-04T10:44:24.051Z,6.03
2023-04-04T10:46:54.326Z,5.57
2023-04-04T10:49:21.874Z,4.47
2023-04-04T10:51:56.336Z,11.80
2023-04-04T10:54:25.666Z,2.70
2023-04-04T10:56:52.864Z,2.40
2023-04-04T10:59:19.577Z,4.83
2023-04-04T11:02:07.181Z,17.80
2023-04-04T11:04:47.268Z,3.27
2023-04-04T11:07:17.560Z,2.23
2023-04-04T11:09:57.075Z,4.43
2023-04-04T11:12:37.894Z,3.30
2023-04-04T11:15:12.774Z,2.22
2023-04-04T11:17:46.517Z,3.20
2023-04-04T11:20:18.492Z,2.00
2023-04-04T11:22:46.101Z,5.85
2023-04-04T11:25:25.029Z,2.25
2023-04-04T11:27:56.754Z,2.35
2023-04-04T11:30:23.993Z,1.92
2023-04-04T11:33:03.745Z,1.92
2023-04-04T11:35:33.290Z,3.15
2023-04-04T11:38:01.204Z,2.93
2023-04-04T11:40:41.877Z,5.17
2023-04-04T11:43:12.790Z,5.90
2023-04-04T11:45:47.027Z,1.70
2023-04-04T11:48:19.079Z,3.33
2023-04-04T11:50:49.822Z,23.23
2023-04-04T11:53:17.680Z,14.87
2023-04-04T11:55:48.241Z,6.13
2023-04-04T11:58:18.138Z,2.07
2023-04-04T12:00:46.650Z,3.20
2023-04-04T12:03:16.393Z,4.50
2023-04-04T12:05:44.659Z,4.43
2023-04-04T12:08:12.657Z,2.13
2023-04-04T12:10:41.116Z,2.50
2023-04-04T12:13:31.877Z,3.50
2023-04-04T12:15:58.557Z,3.07
2023-04-04T12:18:26.496Z,2.20
2023-04-04T12:20:53.742Z,4.93
2023-04-04T12:23:20.516Z,2.37
2023-04-04T12:25:50.040Z,0.93
2023-04-04T12:28:16.716Z,3.67
2023-04-04T12:30:43.598Z,1.33
2023-04-04T12:33:10.256Z,4.40
2023-04-04T12:35:37.762Z,4.13
2023-04-04T12:38:11.104Z,6.93
2023-04-04T12:40:39.377Z,5.63
2023-04-04T12:43:08.112Z,1.90
2023-04-04T12:45:41.361Z,2.30
2023-04-04T12:48:18.214Z,3.40
2023-04-04T12:50:54.214Z,2.73
2023-04-04T12:53:28.464Z,4.57
2023-04-04T12:56:01.433Z,3.88
2023-04-04T12:58:28.134Z,2.50
2023-04-04T13:00:55.748Z,2.42
2023-04-04T13:03:24.656Z,20.98
2023-04-04T13:05:54.879Z,10.85
2023-04-04T13:08:21.722Z,5.95
2023-04-04T13:11:06.224Z,3.00
2023-04-04T13:13:38.963Z,3.70
2023-04-04T13:16:09.846Z,3.23
2023-04-04T13:18:39.463Z,4.10
2023-04-04T13:21:09.977Z,4.17
2023-04-04T13:23:41.403Z,3.10
2023-04-04T13:26:09.764Z,2.57
2023-04-04T13:28:37.832Z,2.90
2023-04-04T13:31:06.297Z,3.03
2023-04-04T13:33:37.742Z,7.55
2023-04-04T13:36:04.651Z,2.25
2023-04-04T13:38:31.767Z,4.90
2023-04-04T13:40:59.451Z,3.03
2023-04-04T13:43:27.169Z,3.72
2023-04-04T13:45:58.149Z,5.05
2023-04-04T13:48:24.794Z,3.47
2023-04-04T13:50:51.609Z,4.07
2023-04-04T13:53:19.356Z,3.67
2023-04-04T13:58:20.184Z,2.85
2023-04-04T14:00:50.379Z,3.78
2023-04-04T14:03:18.249Z,3.83
2023-04-04T14:05:45.050Z,3.30
2023-04-04T14:08:11.978Z,4.57
2023-04-04T14:10:38.689Z,6.18
2023-04-04T14:13:05.862Z,5.80
2023-04-04T14:15:33.591Z,5.18
2023-04-04T14:18:00.325Z,4.28
2023-04-04T14:20:26.997Z,22.33
2023-04-04T14:22:53.636Z,7.10
2023-04-04T14:25:20.260Z,9.10
2023-04-04T14:27:47.368Z,5.25
2023-04-04T14:30:14.475Z,3.90
2023-04-04T14:32:41.082Z,3.30
2023-04-04T14:35:08.074Z,5.65
2023-04-04T14:37:37.993Z,3.33
2023-04-04T14:40:06.969Z,3.35
2023-04-04T14:42:34.507Z,4.07
2023-04-04T14:45:05.278Z,3.45
2023-04-04T14:47:32.349Z,5.18
2023-04-04T14:49:59.239Z,3.05
2023-04-04T14:52:25.890Z,3.33
2023-04-04T14:54:52.446Z,2.47
2023-04-04T14:57:20.184Z,3.70
2023-04-04T14:59:46.773Z,3.30
2023-04-04T15:02:17.970Z,2.75
2023-04-04T15:04:45.042Z,3.38
2023-04-04T15:07:14.007Z,6.00
2023-04-04T15:09:40.590Z,5.40
2023-04-04T15:12:07.179Z,2.78
2023-04-04T15:14:33.782Z,3.90
2023-04-04T15:17:01.672Z,3.13
2023-04-04T15:19:28.734Z,3.38
2023-04-04T15:21:57.458Z,3.38
2023-04-04T15:24:24.131Z,3.42
2023-04-04T15:26:50.774Z,7.82
2023-04-04T15:29:17.447Z,2.45
2023-04-04T15:34:16.473Z,4.32
2023-04-04T15:36:44.447Z,3.00
2023-04-04T15:39:14.182Z,2.22
2023-04-04T15:41:41.127Z,2.27
2023-04-04T15:44:08.026Z,2.00
2023-04-04T15:46:34.674Z,8.43
2023-04-04T15:49:01.369Z,4.20
2023-04-04T15:51:29.110Z,2.90
2023-04-04T15:53:56.325Z,3.33
2023-04-04T15:56:23.294Z,5.87
2023-04-04T15:58:49.923Z,4.70
2023-04-04T16:01:17.036Z,3.03
2023-04-04T16:03:43.787Z,2.50
2023-04-04T16:06:13.204Z,2.87
2023-04-04T16:08:41.302Z,4.20
2023-04-04T16:11:08.423Z,4.47
2023-04-04T16:13:35.405Z,5.23
2023-04-04T16:16:02.195Z,2.93
2023-04-04T16:18:29.716Z,3.57
2023-04-04T16:20:56.395Z,4.27
2023-04-04T16:23:23.020Z,6.57
2023-04-04T16:25:50.870Z,4.93
2023-04-04T16:28:17.541Z,4.10
2023-04-04T16:30:44.163Z,3.50
2023-04-04T16:33:10.987Z,3.87
2023-04-04T16:35:38.586Z,2.50
2023-04-04T16:38:05.148Z,3.20
2023-04-04T16:40:31.988Z,13.00
2023-04-04T16:43:02.068Z,5.33
2023-04-04T16:45:28.671Z,2.67
2023-04-04T16:47:55.380Z,5.93
2023-04-04T16:50:22.008Z,4.23
2023-04-04T16:52:48.676Z,3.33
2023-04-04T16:55:15.292Z,5.23
2023-04-04T16:57:42.901Z,7.37
2023-04-04T17:00:14.090Z,4.37
2023-04-04T17:02:45.758Z,3.53
2023-04-04T17:05:14.042Z,4.50
2023-04-04T17:07:41.068Z,6.10
2023-04-04T17:10:11.713Z,5.87
2023-04-04T17:12:39.473Z,3.47
2023-04-04T17:15:08.314Z,3.10
2023-04-04T17:17:35.253Z,4.43
2023-04-04T17:20:02.435Z,5.20
2023-04-04T17:22:29.170Z,3.17
2023-04-04T17:24:55.977Z,4.27
2023-04-04T17:27:22.621Z,5.13
2023-04-04T17:29:49.204Z,5.87
2023-04-04T17:32:15.999Z,4.00
2023-04-04T17:34:42.667Z,8.67
2023-04-04T17:37:11.366Z,6.13
2023-04-04T17:39:38.596Z,3.90
2023-04-04T17:42:05.725Z,6.77
2023-04-04T17:44:32.324Z,4.53
2023-04-04T17:47:00.867Z,4.70
2023-04-04T17:49:27.494Z,6.73
2023-04-04T17:51:54.171Z,4.83
2023-04-04T17:54:21.605Z,4.07
2023-04-04T17:56:49.806Z,6.67
2023-04-04T17:59:17.704Z,4.83
2023-04-04T18:01:45.541Z,6.80
2023-04-04T18:04:12.703Z,4.40
2023-04-04T18:06:41.158Z,4.00
2023-04-04T18:09:10.426Z,6.07
2023-04-04T18:11:38.607Z,6.23
2023-04-04T18:14:05.487Z,5.63
2023-04-04T18:16:39.089Z,4.80
2023-04-04T18:19:07.353Z,10.07
2023-04-04T18:21:33.966Z,6.90
2023-04-04T18:24:00.686Z,8.20
2023-04-04T18:26:27.877Z,8.70
2023-04-04T18:28:54.554Z,5.43
2023-04-04T18:31:21.691Z,7.20
2023-04-04T18:33:49.952Z,5.97
2023-04-04T18:36:16.703Z,6.73
2023-04-04T18:38:46.230Z,6.73
2023-04-04T18:41:12.863Z,4.17
2023-04-04T18:43:39.681Z,11.93
2023-04-04T18:46:06.528Z,12.07
2023-04-04T18:48:33.772Z,21.50
2023-04-04T18:51:00.844Z,23.77
2023-04-04T18:53:30.913Z,14.37
2023-04-04T18:55:58.139Z,16.83
2023-04-04T18:58:28.466Z,9.63
2023-04-04T19:00:56.100Z,14.43
2023-04-04T19:03:23.197Z,9.10
2023-04-04T19:05:50.568Z,7.50
2023-04-04T19:08:18.111Z,7.50
2023-04-04T19:10:47.885Z,11.10
2023-04-04T19:13:15.415Z,9.43
2023-04-04T19:15:43.267Z,10.87
2023-04-04T19:18:11.028Z,10.60
2023-04-04T19:20:37.778Z,10.60
2023-04-04T19:23:04.396Z,10.70
2023-04-04T19:25:31.167Z,7.20
2023-04-04T19:27:58.436Z,10.27
2023-04-04T19:30:48.042Z,9.27
2023-04-04T19:33:21.457Z,16.17
2023-04-04T19:35:55.986Z,11.33
2023-04-04T19:38:32.087Z,10.03
2023-04-04T19:41:12.566Z,8.77
2023-04-04T19:43:42.669Z,9.23
2023-04-04T19:46:32.718Z,10.07
2023-04-04T19:49:02.033Z,11.00
2023-04-04T19:51:28.545Z,9.23
2023-04-04T19:53:59.936Z,12.77
2023-04-04T19:56:28.235Z,10.77
2023-04-04T19:58:58.056Z,10.73
2023-04-04T20:01:30.039Z,10.63
2023-04-04T20:03:57.064Z,10.30
2023-04-04T20:06:29.225Z,13.83
2023-04-04T20:08:59.406Z,15.37
2023-04-04T20:11:34.064Z,12.40
2023-04-04T20:14:09.164Z,10.67
2023-04-04T20:16:36.562Z,12.60
2023-04-04T20:19:06.875Z,11.33
2023-04-04T20:21:35.828Z,12.97
2023-04-04T20:24:05.675Z,13.40
2023-04-04T20:26:35.492Z,13.03
2023-04-04T20:29:06.920Z,17.53
2023-04-04T20:31:44.547Z,14.40
2023-04-04T20:34:45.166Z,12.23
2023-04-04T20:37:22.003Z,19.40
2023-04-04T20:40:00.282Z,13.70
2023-04-04T20:42:30.045Z,15.30
2023-04-04T20:45:02.615Z,14.10
2023-04-04T20:47:33.496Z,16.73
2023-04-04T20:50:00.217Z,17.30
2023-04-04T20:52:26.940Z,13.90
2023-04-04T20:54:53.490Z,14.33
2023-04-04T20:57:24.909Z,11.97
2023-04-04T20:59:51.636Z,13.77
2023-04-04T21:02:23.626Z,14.00
2023-04-04T21:04:52.144Z,25.60
2023-04-04T21:07:40.320Z,20.63
2023-04-04T21:10:21.942Z,13.87
2023-04-04T21:12:48.486Z,20.23
2023-04-04T21:15:24.807Z,21.27
2023-04-04T21:17:51.820Z,16.17
2023-04-04T21:20:47.101Z,19.97
2023-04-04T21:23:28.868Z,16.53
2023-04-04T21:26:04.060Z,17.87
2023-04-04T21:28:32.346Z,19.17
2023-04-04T21:30:59.928Z,18.80
2023-04-04T21:33:26.930Z,20.73
2023-04-04T21:35:56.294Z,19.83
2023-04-04T21:38:32.104Z,13.77
2023-04-04T21:41:07.413Z,14.63
2023-04-04T21:43:33.952Z,14.57
2023-04-04T21:46:00.636Z,16.60
2023-04-04T21:48:27.439Z,15.07
2023-04-04T21:50:54.121Z,17.30
2023-04-04T21:53:22.428Z,13.97
2023-04-04T21:55:49.049Z,22.30
2023-04-04T21:58:15.859Z,15.53
2023-04-04T22:00:42.862Z,20.87
2023-04-04T22:03:09.644Z,14.50
2023-04-04T22:05:39.374Z,21.27
2023-04-04T22:08:06.748Z,18.33
2023-04-04T22:10:33.790Z,20.50
2023-04-04T22:13:03.520Z,18.63
2023-04-04T22:15:30.079Z,14.40
2023-04-04T22:18:03.935Z,16.90
2023-04-04T22:20:33.803Z,16.20
2023-04-04T22:23:05.226Z,14.50
2023-04-04T22:25:33.980Z,15.93
2023-04-04T22:28:03.481Z,20.27
2023-04-04T22:30:32.041Z,17.37
2023-04-04T22:33:03.744Z,17.17
2023-04-04T22:35:30.500Z,22.73
2023-04-04T22:38:01.012Z,19.70
2023-04-04T22:40:28.716Z,13.73
2023-04-04T22:43:01.665Z,22.50
2023-04-04T22:45:29.761Z,20.93
2023-04-04T22:47:58.054Z,21.10
2023-04-04T22:50:25.140Z,21.67
2023-04-04T22:52:54.800Z,25.73
2023-04-04T22:55:23.962Z,24.27
2023-04-04T22:57:50.804Z,21.13
2023-04-04T23:00:17.694Z,22.57
2023-04-04T23:02:46.309Z,20.33
2023-04-04T23:05:14.755Z,22.10
2023-04-04T23:07:42.310Z,22.80
2023-04-04T23:10:11.634Z,23.80
2023-04-04T23:12:39.000Z,21.37
2023-04-04T23:15:07.162Z,22.80
2023-04-04T23:17:35.945Z,22.07
2023-04-04T23:20:03.788Z,18.20
2023-04-04T23:22:30.382Z,18.23
2023-04-04T23:24:56.935Z,20.43
2023-04-04T23:27:23.456Z,21.87
2023-04-04T23:29:50.791Z,20.97
2023-04-04T23:32:17.355Z,19.03
2023-04-04T23:34:43.925Z,15.90
2023-04-04T23:37:10.541Z,19.67
2023-04-04T23:39:37.283Z,18.37
2023-04-04T23:42:04.566Z,16.87
2023-04-04T23:44:31.235Z,14.07
2023-04-04T23:46:57.992Z,20.70
2023-04-04T23:49:24.620Z,15.43
2023-04-04T23:51:51.243Z,14.03
2023-04-04T23:54:17.906Z,14.53
2023-04-04T23:56:44.517Z,15.30
2023-04-04T23:59:11.678Z,15.70
